createdAt,value
2018-10-12T00:01:00.595Z,20.00
2018-10-12T00:03:29.299Z,15.93
2018-10-12T00:05:58.239Z,21.27
2018-10-12T00:08:26.812Z,14.37
2018-10-12T00:10:56.794Z,18.77
2018-10-12T00:13:25.824Z,15.37
2018-10-12T00:15:54.395Z,18.10
2018-10-12T00:18:23.808Z,17.50
2018-10-12T00:20:52.683Z,16.37
2018-10-12T00:23:21.291Z,16.63
2018-10-12T00:25:49.893Z,19.70
2018-10-12T00:28:18.668Z,14.87
2018-10-12T00:30:47.331Z,26.43
2018-10-12T00:33:16.032Z,16.57
2018-10-12T00:35:44.834Z,17.27
2018-10-12T00:38:13.418Z,15.17
2018-10-12T00:40:42.248Z,16.83
2018-10-12T00:43:10.929Z,19.73
2018-10-12T00:45:39.639Z,21.40
2018-10-12T00:48:08.700Z,17.70
2018-10-12T00:50:37.276Z,14.07
2018-10-12T00:53:05.933Z,18.80
2018-10-12T00:55:35.228Z,14.87
2018-10-12T00:58:03.808Z,19.57
2018-10-12T01:00:32.400Z,17.60
2018-10-12T01:03:01.096Z,15.40
2018-10-12T01:05:30.087Z,18.20
2018-10-12T01:07:59.676Z,14.43
2018-10-12T01:10:28.503Z,15.63
2018-10-12T01:12:57.117Z,14.40
2018-10-12T01:15:25.721Z,15.03
2018-10-12T01:17:54.699Z,16.00
2018-10-12T01:20:23.327Z,15.70
2018-10-12T01:22:52.084Z,16.63
2018-10-12T01:25:20.776Z,14.63
2018-10-12T01:27:49.404Z,15.17
2018-10-12T01:30:18.042Z,18.90
2018-10-12T01:32:52.079Z,16.27
2018-10-12T01:35:20.671Z,14.10
2018-10-12T01:37:49.239Z,15.43
2018-10-12T01:40:18.378Z,14.73
2018-10-12T01:42:46.960Z,21.27
2018-10-12T01:45:15.543Z,19.07
2018-10-12T01:47:44.175Z,14.70
2018-10-12T01:50:12.755Z,20.90
2018-10-12T01:52:41.675Z,16.50
2018-10-12T01:55:10.619Z,21.23
2018-10-12T01:57:39.314Z,13.30
2018-10-12T02:00:08.796Z,21.87
2018-10-12T02:02:37.876Z,17.67
2018-10-12T02:05:06.863Z,17.20
2018-10-12T02:07:36.172Z,15.57
2018-10-12T02:10:04.968Z,17.30
2018-10-12T02:12:33.559Z,19.37
2018-10-12T02:15:02.140Z,19.57
2018-10-12T02:17:30.925Z,16.57
2018-10-12T02:19:59.520Z,17.27
2018-10-12T02:22:28.144Z,18.57
2018-10-12T02:24:56.803Z,19.17
2018-10-12T02:27:25.424Z,16.80
2018-10-12T02:29:54.033Z,14.60
2018-10-12T02:32:22.721Z,21.40
2018-10-12T02:34:51.324Z,14.47
2018-10-12T02:37:20.292Z,18.43
2018-10-12T02:39:48.947Z,15.00
2018-10-12T02:42:17.563Z,13.93
2018-10-12T02:44:46.144Z,14.83
2018-10-12T02:47:14.871Z,17.97
2018-10-12T02:49:43.448Z,17.63
2018-10-12T02:52:12.021Z,16.30
2018-10-12T02:54:41.220Z,16.30
2018-10-12T02:57:10.280Z,16.40
2018-10-12T02:59:38.855Z,23.47
2018-10-12T03:02:07.755Z,17.20
2018-10-12T03:04:36.353Z,19.43
2018-10-12T03:07:04.979Z,16.30
2018-10-12T03:09:33.887Z,18.07
2018-10-12T03:12:02.492Z,17.50
2018-10-12T03:14:31.453Z,16.70
2018-10-12T03:17:00.548Z,14.10
2018-10-12T03:19:29.168Z,17.67
2018-10-12T03:21:58.154Z,16.77
2018-10-12T03:24:26.770Z,20.13
2018-10-12T03:26:55.360Z,14.43
2018-10-12T03:29:24.795Z,12.20
2018-10-12T03:31:53.447Z,18.30
2018-10-12T03:34:22.140Z,13.40
2018-10-12T03:36:51.213Z,11.73
2018-10-12T03:39:20.059Z,11.90
2018-10-12T03:41:48.699Z,15.63
2018-10-12T03:44:17.300Z,19.47
2018-10-12T03:46:46.443Z,14.73
2018-10-12T03:49:15.396Z,13.07
2018-10-12T03:51:44.370Z,12.93
2018-10-12T03:54:13.376Z,18.13
2018-10-12T03:56:42.008Z,15.27
2018-10-12T03:59:10.824Z,13.47
2018-10-12T04:01:39.525Z,16.60
2018-10-12T04:04:08.142Z,14.20
2018-10-12T04:06:36.713Z,12.33
2018-10-12T04:09:07.187Z,12.27
2018-10-12T04:11:35.801Z,14.80
2018-10-12T04:14:04.430Z,13.53
2018-10-12T04:16:33.143Z,16.30
2018-10-12T04:19:01.871Z,16.53
2018-10-12T04:21:30.951Z,12.10
2018-10-12T04:23:59.572Z,12.20
2018-10-12T04:26:28.168Z,10.77
2018-10-12T04:28:56.769Z,16.73
2018-10-12T04:31:25.413Z,17.83
2018-10-12T04:33:54.173Z,15.97
2018-10-12T04:36:22.850Z,13.73
2018-10-12T04:39:02.664Z,18.23
2018-10-12T04:41:32.451Z,12.23
2018-10-12T04:44:02.564Z,16.20
2018-10-12T04:46:36.645Z,12.43
2018-10-12T04:49:07.312Z,11.60
2018-10-12T04:51:40.795Z,12.53
2018-10-12T04:54:09.587Z,16.03
2018-10-12T04:56:38.192Z,11.60
2018-10-12T04:59:07.212Z,13.47
2018-10-12T05:01:36.171Z,13.43
2018-10-12T05:04:05.220Z,13.73
2018-10-12T05:06:33.820Z,19.10
2018-10-12T05:09:02.651Z,15.27
2018-10-12T05:11:31.228Z,15.27
2018-10-12T05:13:59.820Z,15.00
2018-10-12T05:16:28.552Z,15.73
2018-10-12T05:18:57.152Z,16.17
2018-10-12T05:21:25.756Z,22.73
2018-10-12T05:23:54.483Z,14.23
2018-10-12T05:26:23.080Z,14.40
2018-10-12T05:28:51.661Z,18.73
2018-10-12T05:31:20.326Z,12.47
2018-10-12T05:33:49.288Z,16.20
2018-10-12T05:36:17.863Z,13.30
2018-10-12T05:38:46.671Z,15.97
2018-10-12T05:41:15.297Z,12.30
2018-10-12T05:43:43.983Z,17.83
2018-10-12T05:46:12.519Z,15.13
2018-10-12T05:48:52.879Z,13.27
2018-10-12T05:51:21.818Z,17.17
2018-10-12T05:53:51.575Z,12.50
2018-10-12T05:56:25.380Z,14.50
2018-10-12T05:58:54.446Z,11.67
2018-10-12T06:01:23.059Z,9.90
2018-10-12T06:03:51.758Z,13.70
2018-10-12T06:06:20.543Z,14.07
2018-10-12T06:08:49.431Z,12.37
2018-10-12T06:11:18.179Z,20.23
2018-10-12T06:13:46.747Z,14.40
2018-10-12T06:16:15.367Z,16.73
2018-10-12T06:18:44.464Z,19.07
2018-10-12T06:21:13.126Z,11.10
2018-10-12T06:23:42.064Z,13.30
2018-10-12T06:26:10.775Z,14.87
2018-10-12T06:28:39.380Z,12.67
2018-10-12T06:31:09.020Z,12.67
2018-10-12T06:33:38.328Z,12.93
2018-10-12T06:36:07.326Z,13.53
2018-10-12T06:38:35.904Z,12.60
2018-10-12T06:41:04.722Z,10.63
2018-10-12T06:43:33.680Z,11.30
2018-10-12T06:46:02.291Z,13.90
2018-10-12T06:48:30.900Z,15.00
2018-10-12T06:50:59.501Z,13.53
2018-10-12T06:53:28.084Z,25.00
2018-10-12T06:55:56.959Z,16.20
2018-10-12T06:58:25.556Z,13.53
2018-10-12T07:00:54.148Z,14.03
2018-10-12T07:03:23.064Z,11.10
2018-10-12T07:05:51.440Z,9.87
2018-10-12T07:08:20.008Z,11.10
2018-10-12T07:10:48.659Z,13.10
2018-10-12T07:13:17.799Z,13.00
2018-10-12T07:15:46.839Z,14.20
2018-10-12T07:18:15.432Z,10.50
2018-10-12T07:20:45.232Z,13.27
2018-10-12T07:23:13.812Z,16.07
2018-10-12T07:25:42.428Z,11.13
2018-10-12T07:28:10.992Z,10.10
2018-10-12T07:30:39.712Z,15.30
2018-10-12T07:33:08.741Z,9.10
2018-10-12T07:35:37.356Z,8.37
2018-10-12T07:38:05.944Z,10.40
2018-10-12T07:40:34.940Z,11.17
2018-10-12T07:43:03.568Z,12.60
2018-10-12T07:45:32.142Z,12.00
2018-10-12T07:48:00.865Z,8.50
2018-10-12T07:50:29.480Z,15.53
2018-10-12T07:52:58.063Z,8.83
2018-10-12T07:55:27.016Z,8.67
2018-10-12T07:57:55.596Z,8.03
2018-10-12T08:00:24.284Z,10.03
2018-10-12T08:02:52.955Z,9.00
2018-10-12T08:05:22.460Z,14.27
2018-10-12T08:07:51.615Z,7.57
2018-10-12T08:10:20.253Z,12.07
2018-10-12T08:12:48.876Z,6.43
2018-10-12T08:15:17.552Z,9.33
2018-10-12T08:17:46.334Z,8.47
2018-10-12T08:20:15.060Z,8.17
2018-10-12T08:22:43.636Z,11.50
2018-10-12T08:25:12.316Z,6.43
2018-10-12T08:27:40.924Z,10.33
2018-10-12T08:30:09.561Z,8.67
2018-10-12T08:32:38.403Z,6.57
2018-10-12T08:35:07.173Z,18.80
2018-10-12T08:37:35.772Z,9.57
2018-10-12T08:40:04.540Z,4.30
2018-10-12T08:42:33.126Z,3.60
2018-10-12T08:45:01.743Z,4.70
2018-10-12T08:47:30.763Z,5.00
2018-10-12T08:49:59.332Z,7.57
2018-10-12T08:52:28.262Z,9.33
2018-10-12T08:54:56.865Z,5.67
2018-10-12T08:57:25.473Z,7.73
2018-10-12T08:59:54.083Z,5.93
2018-10-12T09:02:22.707Z,5.60
2018-10-12T09:04:51.297Z,7.03
2018-10-12T09:07:20.434Z,6.80
2018-10-12T09:09:50.029Z,7.77
2018-10-12T09:12:18.614Z,4.80
2018-10-12T09:14:47.588Z,3.83
2018-10-12T09:17:16.382Z,4.30
2018-10-12T09:19:45.028Z,6.20
2018-10-12T09:22:13.592Z,3.40
2018-10-12T09:24:42.623Z,5.20
2018-10-12T09:27:11.279Z,9.60
2018-10-12T09:29:39.943Z,9.03
2018-10-12T09:32:08.635Z,9.93
2018-10-12T09:34:37.744Z,6.13
2018-10-12T09:37:06.352Z,6.93
2018-10-12T09:39:34.975Z,3.63
2018-10-12T09:42:03.584Z,5.53
2018-10-12T09:44:32.254Z,6.00
2018-10-12T09:47:00.968Z,7.30
2018-10-12T09:49:29.636Z,6.00
2018-10-12T09:51:58.247Z,4.80
2018-10-12T09:54:27.259Z,4.00
2018-10-12T09:57:01.000Z,6.07
2018-10-12T09:59:29.712Z,3.97
2018-10-12T10:02:03.629Z,6.10
2018-10-12T10:04:33.886Z,5.53
2018-10-12T10:07:03.802Z,4.33
2018-10-12T10:09:32.447Z,8.47
2018-10-12T10:12:01.980Z,3.53
2018-10-12T10:14:30.608Z,2.73
2018-10-12T10:16:59.211Z,6.27
2018-10-12T10:19:27.924Z,4.13
2018-10-12T10:21:56.545Z,6.40
2018-10-12T10:24:26.400Z,3.73
2018-10-12T10:26:55.099Z,4.57
2018-10-12T10:29:23.778Z,6.30
2018-10-12T10:31:52.284Z,4.83
2018-10-12T10:34:20.885Z,3.40
2018-10-12T10:36:49.485Z,3.40
2018-10-12T10:39:18.051Z,4.93
2018-10-12T10:41:46.652Z,2.80
2018-10-12T10:44:15.268Z,6.03
2018-10-12T10:46:43.880Z,2.50
2018-10-12T10:49:12.515Z,5.53
2018-10-12T10:51:41.495Z,5.40
2018-10-12T10:54:10.106Z,3.13
2018-10-12T10:56:38.971Z,6.80
2018-10-12T10:59:08.635Z,5.33
2018-10-12T11:01:37.215Z,3.93
2018-10-12T11:04:06.297Z,8.63
2018-10-12T11:06:35.275Z,4.03
2018-10-12T11:09:05.057Z,6.40
2018-10-12T11:11:34.152Z,4.60
2018-10-12T11:14:02.713Z,5.13
2018-10-12T11:16:31.340Z,4.87
2018-10-12T11:18:59.977Z,4.03
2018-10-12T11:21:28.703Z,1.90
2018-10-12T11:23:57.290Z,8.90
2018-10-12T11:26:25.975Z,6.10
2018-10-12T11:28:54.884Z,2.30
2018-10-12T11:31:23.450Z,4.60
2018-10-12T11:33:53.008Z,2.00
2018-10-12T11:36:21.715Z,5.80
2018-10-12T11:38:50.604Z,5.13
2018-10-12T11:41:19.303Z,3.17
2018-10-12T11:43:47.892Z,4.90
2018-10-12T11:46:16.483Z,4.10
2018-10-12T11:48:45.085Z,3.97
2018-10-12T11:51:13.680Z,2.87
2018-10-12T11:53:42.272Z,4.63
2018-10-12T11:56:10.925Z,2.37
2018-10-12T11:58:39.536Z,3.00
2018-10-12T12:01:08.414Z,4.00
2018-10-12T12:03:37.080Z,4.50
2018-10-12T12:06:05.701Z,4.27
2018-10-12T12:08:34.637Z,3.40
2018-10-12T12:11:03.749Z,4.40
2018-10-12T12:13:32.371Z,3.40
2018-10-12T12:16:01.433Z,3.27
2018-10-12T12:18:30.311Z,2.27
2018-10-12T12:20:59.794Z,4.00
2018-10-12T12:23:28.702Z,5.30
2018-10-12T12:25:57.696Z,2.80
2018-10-12T12:28:26.462Z,4.20
2018-10-12T12:30:55.071Z,11.30
2018-10-12T12:33:24.604Z,12.53
2018-10-12T12:35:54.288Z,2.10
2018-10-12T12:38:22.869Z,3.27
2018-10-12T12:40:51.810Z,2.87
2018-10-12T12:43:20.445Z,6.60
2018-10-12T12:45:49.308Z,3.00
2018-10-12T12:48:18.721Z,2.50
2018-10-12T12:50:47.323Z,6.50
2018-10-12T12:53:16.493Z,5.97
2018-10-12T12:55:45.144Z,4.63
2018-10-12T12:58:13.755Z,4.77
2018-10-12T13:00:42.801Z,1.80
2018-10-12T13:03:11.665Z,5.37
2018-10-12T13:05:40.617Z,2.77
2018-10-12T13:08:09.356Z,4.07
2018-10-12T13:10:38.110Z,3.30
2018-10-12T13:13:06.900Z,2.13
2018-10-12T13:15:35.684Z,2.93
2018-10-12T13:18:04.767Z,3.00
2018-10-12T13:20:34.319Z,3.70
2018-10-12T13:23:03.011Z,3.40
2018-10-12T13:25:31.924Z,4.00
2018-10-12T13:28:00.964Z,6.73
2018-10-12T13:30:29.746Z,5.47
2018-10-12T13:32:59.583Z,3.03
2018-10-12T13:35:28.184Z,6.50
2018-10-12T13:37:56.940Z,3.10
2018-10-12T13:40:26.227Z,3.33
2018-10-12T13:42:55.129Z,4.63
2018-10-12T13:45:24.125Z,2.37
2018-10-12T13:47:53.099Z,3.93
2018-10-12T13:50:22.348Z,2.20
2018-10-12T13:52:51.650Z,3.67
2018-10-12T13:55:21.267Z,2.53
2018-10-12T13:57:50.383Z,5.83
2018-10-12T14:00:19.206Z,2.23
2018-10-12T14:02:48.424Z,2.87
2018-10-12T14:05:17.345Z,3.57
2018-10-12T14:07:46.933Z,5.00
2018-10-12T14:10:16.135Z,2.17
2018-10-12T14:12:45.568Z,3.47
2018-10-12T14:15:15.273Z,5.10
2018-10-12T14:17:44.162Z,3.90
2018-10-12T14:20:13.144Z,2.93
2018-10-12T14:22:41.876Z,3.20
2018-10-12T14:25:10.868Z,2.53
2018-10-12T14:27:39.451Z,9.43
2018-10-12T14:30:08.212Z,2.17
2018-10-12T14:32:36.824Z,2.13
2018-10-12T14:35:05.879Z,2.97
2018-10-12T14:37:34.502Z,3.10
2018-10-12T14:40:03.895Z,2.33
2018-10-12T14:42:32.929Z,2.73
2018-10-12T14:45:01.681Z,5.63
2018-10-12T14:47:30.288Z,2.70
2018-10-12T14:49:58.881Z,10.40
2018-10-12T14:52:28.505Z,3.57
2018-10-12T14:54:57.076Z,3.07
2018-10-12T14:57:25.684Z,5.10
2018-10-12T14:59:54.392Z,4.97
2018-10-12T15:02:23.033Z,4.03
2018-10-12T15:04:51.637Z,9.40
2018-10-12T15:07:20.332Z,2.23
2018-10-12T15:09:48.939Z,3.00
2018-10-12T15:12:17.583Z,3.27
2018-10-12T15:14:57.532Z,4.30
2018-10-12T15:17:26.675Z,2.80
2018-10-12T15:19:55.306Z,2.23
2018-10-12T15:22:23.927Z,5.30
2018-10-12T15:24:52.507Z,7.03
2018-10-12T15:27:21.102Z,4.60
2018-10-12T15:29:49.791Z,4.17
2018-10-12T15:32:18.400Z,4.77
2018-10-12T15:34:47.003Z,2.37
2018-10-12T15:37:15.724Z,3.60
2018-10-12T15:39:44.292Z,3.73
2018-10-12T15:42:12.919Z,5.37
2018-10-12T15:44:41.567Z,2.30
2018-10-12T15:47:11.958Z,8.83
2018-10-12T15:49:41.043Z,3.47
2018-10-12T15:52:09.708Z,4.73
2018-10-12T15:54:38.310Z,3.10
2018-10-12T15:57:07.000Z,2.97
2018-10-12T15:59:36.346Z,7.97
2018-10-12T16:02:04.960Z,2.50
2018-10-12T16:04:33.939Z,4.80
2018-10-12T16:07:02.593Z,2.40
2018-10-12T16:09:31.243Z,3.13
2018-10-12T16:12:00.386Z,3.50
2018-10-12T16:14:28.989Z,2.93
2018-10-12T16:16:57.672Z,3.60
2018-10-12T16:19:26.303Z,9.83
2018-10-12T16:21:55.460Z,3.03
2018-10-12T16:24:24.120Z,3.40
2018-10-12T16:26:52.804Z,6.00
2018-10-12T16:29:21.408Z,7.00
2018-10-12T16:31:49.980Z,4.13
2018-10-12T16:34:18.675Z,3.50
2018-10-12T16:36:47.318Z,4.33
2018-10-12T16:39:15.929Z,2.60
2018-10-12T16:41:45.465Z,5.17
2018-10-12T16:44:14.042Z,4.40
2018-10-12T16:46:42.783Z,5.77
2018-10-12T16:49:11.471Z,6.50
2018-10-12T16:51:40.051Z,3.30
2018-10-12T16:54:08.652Z,5.77
2018-10-12T16:56:37.358Z,10.33
2018-10-12T16:59:05.936Z,6.90
2018-10-12T17:01:34.500Z,3.93
2018-10-12T17:04:03.230Z,4.80
2018-10-12T17:06:31.956Z,4.53
2018-10-12T17:09:00.531Z,5.97
2018-10-12T17:11:32.327Z,3.30
2018-10-12T17:14:01.233Z,8.50
2018-10-12T17:16:29.923Z,7.43
2018-10-12T17:18:58.729Z,13.23
2018-10-12T17:21:27.920Z,7.17
2018-10-12T17:23:56.564Z,5.77
2018-10-12T17:26:25.196Z,5.30
2018-10-12T17:28:53.783Z,10.10
2018-10-12T17:31:22.432Z,5.80
2018-10-12T17:33:51.888Z,7.00
2018-10-12T17:36:20.799Z,5.03
2018-10-12T17:38:50.439Z,6.10
2018-10-12T17:41:21.210Z,7.17
2018-10-12T17:43:50.289Z,10.00
2018-10-12T17:46:19.391Z,11.97
2018-10-12T17:48:48.705Z,10.67
2018-10-12T17:51:17.678Z,23.80
2018-10-12T17:53:46.904Z,5.50
2018-10-12T17:56:16.180Z,7.07
2018-10-12T17:58:45.435Z,6.47
2018-10-12T18:01:14.063Z,15.13
2018-10-12T18:03:43.476Z,5.33
2018-10-12T18:06:12.935Z,7.97
2018-10-12T18:08:42.393Z,6.30
2018-10-12T18:11:11.902Z,4.00
2018-10-12T18:13:40.945Z,7.20
2018-10-12T18:16:10.502Z,7.93
2018-10-12T18:18:39.215Z,5.73
2018-10-12T18:21:08.452Z,6.17
2018-10-12T18:23:37.792Z,10.63
2018-10-12T18:26:07.244Z,5.07
2018-10-12T18:28:36.769Z,5.10
2018-10-12T18:31:06.283Z,9.20
2018-10-12T18:33:35.674Z,6.43
2018-10-12T18:36:05.142Z,5.70
2018-10-12T18:38:34.470Z,5.57
2018-10-12T18:41:03.857Z,6.17
2018-10-12T18:43:33.092Z,8.40
2018-10-12T18:46:02.237Z,7.20
2018-10-12T18:48:31.332Z,3.50
2018-10-12T18:51:00.448Z,8.60
2018-10-12T18:53:29.588Z,6.80
2018-10-12T18:55:58.582Z,4.63
2018-10-12T18:58:27.830Z,11.07
2018-10-12T19:00:57.626Z,7.17
2018-10-12T19:03:26.412Z,6.67
2018-10-12T19:05:55.008Z,7.20
2018-10-12T19:08:23.992Z,7.60
2018-10-12T19:10:53.336Z,8.23
2018-10-12T19:13:22.197Z,10.70
2018-10-12T19:15:51.117Z,6.07
2018-10-12T19:18:19.720Z,7.60
2018-10-12T19:20:48.298Z,6.00
2018-10-12T19:23:16.860Z,9.93
2018-10-12T19:25:45.600Z,9.60
2018-10-12T19:28:14.180Z,3.87
2018-10-12T19:30:42.757Z,15.27
2018-10-12T19:33:11.442Z,7.30
2018-10-12T19:35:40.383Z,8.60
2018-10-12T19:38:09.009Z,8.10
2018-10-12T19:40:37.588Z,8.30
2018-10-12T19:43:06.569Z,9.93
2018-10-12T19:45:35.168Z,10.50
2018-10-12T19:48:03.792Z,6.77
2018-10-12T19:50:32.368Z,8.33
2018-10-12T19:53:01.009Z,13.93
2018-10-12T19:55:29.760Z,7.97
2018-10-12T19:57:58.351Z,8.00
2018-10-12T20:00:26.960Z,9.97
2018-10-12T20:02:55.652Z,12.60
2018-10-12T20:05:24.259Z,6.70
2018-10-12T20:07:52.873Z,10.37
2018-10-12T20:10:21.601Z,6.53
2018-10-12T20:12:50.269Z,8.80
2018-10-12T20:15:19.119Z,8.87
2018-10-12T20:17:47.874Z,9.90
2018-10-12T20:20:16.431Z,6.93
2018-10-12T20:22:45.025Z,11.17
2018-10-12T20:25:13.752Z,16.20
2018-10-12T20:27:42.607Z,6.80
2018-10-12T20:30:11.184Z,7.07
2018-10-12T20:32:39.868Z,8.13
2018-10-12T20:35:08.467Z,11.93
2018-10-12T20:37:37.082Z,5.37
2018-10-12T20:40:05.767Z,11.57
2018-10-12T20:42:34.327Z,10.33
2018-10-12T20:45:03.831Z,9.60
2018-10-12T20:47:32.824Z,9.83
2018-10-12T20:50:01.452Z,5.23
2018-10-12T20:52:30.110Z,17.87
2018-10-12T20:54:58.863Z,10.10
2018-10-12T20:57:27.501Z,6.90
2018-10-12T20:59:56.247Z,14.70
2018-10-12T21:02:25.248Z,6.43
2018-10-12T21:04:53.908Z,13.87
2018-10-12T21:07:22.548Z,11.33
2018-10-12T21:09:51.875Z,9.53
2018-10-12T21:12:20.557Z,9.33
2018-10-12T21:14:49.652Z,10.30
2018-10-12T21:17:18.372Z,9.30
2018-10-12T21:19:47.124Z,11.40
2018-10-12T21:22:15.739Z,13.07
2018-10-12T21:24:44.377Z,13.57
2018-10-12T21:27:13.036Z,8.80
2018-10-12T21:29:41.638Z,10.90
2018-10-12T21:32:10.272Z,11.53
2018-10-12T21:34:38.896Z,7.77
2018-10-12T21:37:07.529Z,9.53
2018-10-12T21:39:36.408Z,13.10
2018-10-12T21:42:05.115Z,9.70
2018-10-12T21:44:33.686Z,14.33
2018-10-12T21:47:02.372Z,9.20
2018-10-12T21:49:30.972Z,21.27
2018-10-12T21:51:59.562Z,9.97
2018-10-12T21:54:28.530Z,12.77
2018-10-12T21:56:57.401Z,8.70
2018-10-12T21:59:26.099Z,10.97
2018-10-12T22:01:54.802Z,7.90
2018-10-12T22:04:23.968Z,10.60
2018-10-12T22:06:52.552Z,7.93
2018-10-12T22:09:21.211Z,9.03
2018-10-12T22:11:49.919Z,10.60
2018-10-12T22:14:18.976Z,10.60
2018-10-12T22:16:47.909Z,10.50
2018-10-12T22:19:16.593Z,11.03
2018-10-12T22:21:45.157Z,9.83
2018-10-12T22:24:13.856Z,8.30
2018-10-12T22:26:42.577Z,9.47
2018-10-12T22:29:11.167Z,12.27
2018-10-12T22:31:39.847Z,8.83
2018-10-12T22:34:08.552Z,9.03
2018-10-12T22:36:37.116Z,8.40
2018-10-12T22:39:08.128Z,8.00
2018-10-12T22:41:36.753Z,14.53
2018-10-12T22:44:05.350Z,10.40
2018-10-12T22:46:34.204Z,14.40
2018-10-12T22:49:03.462Z,10.50
2018-10-12T22:51:32.040Z,11.60
2018-10-12T22:54:01.140Z,12.53
2018-10-12T22:56:30.032Z,10.97
2018-10-12T22:58:58.598Z,7.23
2018-10-12T23:01:27.237Z,6.63
2018-10-12T23:03:55.845Z,8.37
2018-10-12T23:06:24.428Z,11.37
2018-10-12T23:08:53.696Z,6.53
2018-10-12T23:11:22.307Z,15.70
2018-10-12T23:13:52.032Z,9.27
2018-10-12T23:16:20.716Z,14.40
2018-10-12T23:18:49.440Z,9.10
2018-10-12T23:21:18.579Z,8.27
2018-10-12T23:23:48.029Z,17.73
2018-10-12T23:26:16.640Z,11.80
2018-10-12T23:28:45.226Z,8.00
2018-10-12T23:31:14.639Z,9.43
2018-10-12T23:33:54.331Z,10.20
2018-10-12T23:36:23.253Z,9.00
2018-10-12T23:38:52.004Z,10.60
2018-10-12T23:41:20.605Z,10.73
2018-10-12T23:43:49.211Z,9.60
2018-10-12T23:46:17.805Z,20.00
2018-10-12T23:48:46.380Z,9.30
2018-10-12T23:51:15.001Z,8.80
2018-10-12T23:53:43.570Z,7.10
2018-10-12T23:56:12.133Z,9.00
2018-10-12T23:58:40.772Z,11.53
